EXS19FA EGKK-LEGE
Flight info
| Callsign | EXS19FA |
|---|---|
| Flight time | N/A |
| Altitude | 33000 |
| Route | SFD Y47 BENBO L612 XAMAB UL612 VEULE DCT DEKOD UN857 DISAK DCT DIRMO DCT VALKU DCT ATSUP DCT MINSO DCT DEGOL DCT PPG A27 KANIG |
| Aircraft | A21N/M-SDE2E3FGHIRWXY/LB1 |
Departure
| Time | N/A |
|---|---|
| Airport | London Gatwick Airport (EGKK) |
Arrival
| Time | 2026-05-08 15:44 |
|---|---|
| Airport | Girona-Costa Brava Airport (LEGE) |
| Time | Latitude | Longitude | Altitude | Speed | Heading |
|---|---|---|---|---|---|
| 2026-05-08 14:22 | 50.23378 | 0.23450 | 29358 ft | 451 kts | 148° |
| 2026-05-08 14:22 | 50.20772 | 0.26124 | 29733 ft | 454 kts | 148° |
| 2026-05-08 14:22 | 50.18102 | 0.28861 | 30078 ft | 457 kts | 148° |
| 2026-05-08 14:23 | 50.15470 | 0.31567 | 30401 ft | 460 kts | 148° |
| 2026-05-08 14:23 | 50.12796 | 0.34320 | 30723 ft | 462 kts | 148° |
| 2026-05-08 14:23 | 50.10109 | 0.37081 | 31082 ft | 462 kts | 149° |
| 2026-05-08 14:23 | 50.07421 | 0.39837 | 31475 ft | 462 kts | 149° |
| 2026-05-08 14:24 | 50.04736 | 0.42582 | 31881 ft | 462 kts | 149° |
| 2026-05-08 14:24 | 50.02051 | 0.45323 | 32265 ft | 461 kts | 149° |
| 2026-05-08 14:24 | 49.99362 | 0.48066 | 32576 ft | 464 kts | 148° |
| 2026-05-08 14:24 | 49.96663 | 0.50820 | 32877 ft | 465 kts | 149° |
| 2026-05-08 14:25 | 49.93958 | 0.53573 | 33075 ft | 464 kts | 149° |
| 2026-05-08 14:25 | 49.88576 | 0.59036 | 33076 ft | 461 kts | 149° |
| 2026-05-08 14:26 | 49.83202 | 0.64434 | 33055 ft | 460 kts | 150° |
| 2026-05-08 14:26 | 49.77780 | 0.69689 | 33051 ft | 460 kts | 150° |
| 2026-05-08 14:27 | 49.72352 | 0.74942 | 33049 ft | 459 kts | 150° |
| 2026-05-08 14:27 | 49.66934 | 0.80183 | 33046 ft | 459 kts | 150° |
| 2026-05-08 14:28 | 49.61528 | 0.85421 | 33045 ft | 458 kts | 150° |
| 2026-05-08 14:28 | 49.56125 | 0.90634 | 33049 ft | 459 kts | 150° |
| 2026-05-08 14:29 | 49.50687 | 0.95861 | 33034 ft | 461 kts | 150° |
| 2026-05-08 14:29 | 49.45284 | 1.01042 | 33048 ft | 460 kts | 150° |
| 2026-05-08 14:30 | 49.39845 | 1.06245 | 33048 ft | 460 kts | 150° |
| 2026-05-08 14:30 | 49.34404 | 1.11440 | 33051 ft | 460 kts | 150° |
| 2026-05-08 14:31 | 49.28966 | 1.16614 | 33043 ft | 460 kts | 150° |
| 2026-05-08 14:31 | 49.23534 | 1.21769 | 33047 ft | 459 kts | 150° |
| 2026-05-08 14:32 | 49.15378 | 1.29480 | 33049 ft | 459 kts | 150° |
| 2026-05-08 14:32 | 49.09937 | 1.34613 | 33064 ft | 462 kts | 150° |
| 2026-05-08 14:33 | 49.04460 | 1.39764 | 33045 ft | 462 kts | 151° |
| 2026-05-08 14:33 | 48.98992 | 1.44893 | 33047 ft | 462 kts | 151° |
| 2026-05-08 14:34 | 48.93517 | 1.50015 | 33045 ft | 462 kts | 151° |
| 2026-05-08 14:34 | 48.88080 | 1.55088 | 33040 ft | 462 kts | 151° |
| 2026-05-08 14:35 | 48.82569 | 1.60217 | 33035 ft | 461 kts | 151° |
| 2026-05-08 14:35 | 48.77123 | 1.65274 | 33033 ft | 462 kts | 151° |
| 2026-05-08 14:36 | 48.71646 | 1.70345 | 33026 ft | 461 kts | 151° |
| 2026-05-08 14:36 | 48.66164 | 1.75404 | 33043 ft | 463 kts | 151° |
| 2026-05-08 14:37 | 48.60640 | 1.80489 | 33019 ft | 464 kts | 151° |
| 2026-05-08 14:37 | 48.55135 | 1.85551 | 33026 ft | 464 kts | 151° |
| 2026-05-08 14:38 | 48.49614 | 1.90609 | 33026 ft | 464 kts | 151° |
| 2026-05-08 14:38 | 48.44095 | 1.95651 | 33027 ft | 464 kts | 151° |
| 2026-05-08 14:39 | 48.38579 | 2.00672 | 33017 ft | 461 kts | 152° |
| 2026-05-08 14:39 | 48.33086 | 2.05662 | 33020 ft | 462 kts | 152° |
| 2026-05-08 14:40 | 48.27406 | 2.09997 | 33015 ft | 455 kts | 167° |
| 2026-05-08 14:40 | 48.21240 | 2.11613 | 33023 ft | 448 kts | 178° |
| 2026-05-08 14:41 | 48.15068 | 2.12809 | 33009 ft | 446 kts | 176° |
| 2026-05-08 14:41 | 48.08898 | 2.13446 | 33025 ft | 445 kts | 183° |
| 2026-05-08 14:42 | 48.02754 | 2.13785 | 33019 ft | 444 kts | 183° |
| 2026-05-08 14:42 | 47.96542 | 2.14144 | 33013 ft | 443 kts | 183° |
| 2026-05-08 14:43 | 47.90431 | 2.14501 | 33026 ft | 442 kts | 182° |
| 2026-05-08 14:43 | 47.84282 | 2.14859 | 33022 ft | 442 kts | 183° |
| 2026-05-08 14:44 | 47.78141 | 2.15216 | 32976 ft | 442 kts | 182° |
| 2026-05-08 14:44 | 47.72021 | 2.15573 | 32994 ft | 439 kts | 182° |
| 2026-05-08 14:45 | 47.65919 | 2.15925 | 32994 ft | 439 kts | 182° |
| 2026-05-08 14:45 | 47.59813 | 2.16285 | 32987 ft | 439 kts | 182° |
| 2026-05-08 14:46 | 47.53717 | 2.16640 | 32984 ft | 437 kts | 182° |
| 2026-05-08 14:46 | 47.47649 | 2.16989 | 32990 ft | 436 kts | 182° |
| 2026-05-08 14:47 | 47.41557 | 2.17338 | 32987 ft | 439 kts | 182° |
| 2026-05-08 14:47 | 47.35460 | 2.17689 | 32962 ft | 438 kts | 182° |
| 2026-05-08 14:48 | 47.29398 | 2.18039 | 32975 ft | 435 kts | 182° |
| 2026-05-08 14:48 | 47.23378 | 2.18383 | 32974 ft | 436 kts | 182° |
| 2026-05-08 14:49 | 47.17320 | 2.18730 | 32968 ft | 436 kts | 182° |
| 2026-05-08 14:49 | 47.11272 | 2.19083 | 32957 ft | 435 kts | 181° |
| 2026-05-08 14:50 | 47.08263 | 2.19693 | 32956 ft | 440 kts | 169° |
| 2026-05-08 14:50 | 47.05344 | 2.21145 | 32968 ft | 445 kts | 162° |
| 2026-05-08 14:50 | 46.99613 | 2.24596 | 32956 ft | 446 kts | 161° |
| 2026-05-08 14:51 | 46.93867 | 2.27992 | 32946 ft | 445 kts | 162° |
| 2026-05-08 14:51 | 46.88132 | 2.31326 | 32958 ft | 443 kts | 162° |
| 2026-05-08 14:52 | 46.79536 | 2.36327 | 32956 ft | 443 kts | 162° |
| 2026-05-08 14:53 | 46.73813 | 2.39655 | 32955 ft | 443 kts | 162° |
| 2026-05-08 14:53 | 46.68081 | 2.42959 | 32948 ft | 443 kts | 162° |
| 2026-05-08 14:54 | 46.62335 | 2.46256 | 32949 ft | 445 kts | 162° |
| 2026-05-08 14:54 | 46.56577 | 2.49581 | 32950 ft | 445 kts | 162° |
| 2026-05-08 14:55 | 46.50864 | 2.52865 | 32935 ft | 442 kts | 162° |
| 2026-05-08 14:55 | 46.45137 | 2.56129 | 32940 ft | 442 kts | 162° |
| 2026-05-08 14:56 | 46.39425 | 2.59386 | 32949 ft | 440 kts | 162° |
| 2026-05-08 14:56 | 46.33723 | 2.62635 | 32936 ft | 440 kts | 162° |
| 2026-05-08 14:57 | 46.28048 | 2.65857 | 32938 ft | 436 kts | 162° |
| 2026-05-08 14:57 | 46.22395 | 2.69062 | 32940 ft | 436 kts | 162° |
| 2026-05-08 14:58 | 46.16742 | 2.72262 | 32943 ft | 436 kts | 162° |
| 2026-05-08 14:58 | 46.11135 | 2.75428 | 32944 ft | 433 kts | 162° |
| 2026-05-08 14:59 | 46.05544 | 2.78577 | 32939 ft | 432 kts | 163° |
| 2026-05-08 14:59 | 45.97082 | 2.83247 | 32953 ft | 435 kts | 164° |
| 2026-05-08 15:00 | 45.91404 | 2.86245 | 32955 ft | 433 kts | 164° |
| 2026-05-08 15:00 | 45.85767 | 2.89217 | 32958 ft | 431 kts | 164° |
| 2026-05-08 15:01 | 45.80132 | 2.92182 | 32965 ft | 431 kts | 164° |
| 2026-05-08 15:01 | 45.74450 | 2.94896 | 32958 ft | 427 kts | 173° |
| 2026-05-08 15:02 | 45.71528 | 2.95288 | 32953 ft | 419 kts | 184° |
| 2026-05-08 15:02 | 45.68615 | 2.95224 | 32957 ft | 417 kts | 186° |
| 2026-05-08 15:02 | 45.62812 | 2.94983 | 32961 ft | 417 kts | 186° |
| 2026-05-08 15:03 | 45.57006 | 2.94808 | 32966 ft | 417 kts | 185° |
| 2026-05-08 15:03 | 45.51207 | 2.94654 | 32960 ft | 416 kts | 185° |
| 2026-05-08 15:04 | 45.45452 | 2.94500 | 32975 ft | 413 kts | 185° |
| 2026-05-08 15:04 | 45.39746 | 2.94350 | 32980 ft | 414 kts | 185° |
| 2026-05-08 15:05 | 45.33976 | 2.94197 | 32966 ft | 415 kts | 185° |
| 2026-05-08 15:05 | 45.28225 | 2.94049 | 32970 ft | 413 kts | 185° |
| 2026-05-08 15:06 | 45.22476 | 2.93897 | 32973 ft | 413 kts | 185° |
| 2026-05-08 15:06 | 45.17697 | 2.93770 | 32975 ft | 413 kts | 185° |
| 2026-05-08 15:07 | 45.11962 | 2.93620 | 32972 ft | 411 kts | 185° |
| 2026-05-08 15:07 | 45.06232 | 2.93473 | 32979 ft | 412 kts | 185° |
| 2026-05-08 15:08 | 45.00492 | 2.93326 | 32981 ft | 412 kts | 185° |
| 2026-05-08 15:08 | 44.94756 | 2.93175 | 32979 ft | 412 kts | 185° |
| 2026-05-08 15:09 | 44.89073 | 2.93029 | 32980 ft | 411 kts | 185° |
| 2026-05-08 15:09 | 44.83367 | 2.92814 | 32978 ft | 410 kts | 186° |
| 2026-05-08 15:10 | 44.77664 | 2.92397 | 32983 ft | 411 kts | 186° |
| 2026-05-08 15:10 | 44.71952 | 2.91976 | 32982 ft | 411 kts | 186° |
| 2026-05-08 15:11 | 44.66245 | 2.91559 | 32982 ft | 409 kts | 186° |
| 2026-05-08 15:11 | 44.60596 | 2.91149 | 32982 ft | 407 kts | 186° |
| 2026-05-08 15:12 | 44.54943 | 2.90735 | 32985 ft | 405 kts | 186° |
| 2026-05-08 15:12 | 44.49318 | 2.90327 | 32996 ft | 405 kts | 186° |
| 2026-05-08 15:13 | 44.43692 | 2.89921 | 32982 ft | 405 kts | 186° |
| 2026-05-08 15:13 | 44.38096 | 2.89515 | 32990 ft | 405 kts | 186° |
| 2026-05-08 15:14 | 44.32485 | 2.89107 | 32999 ft | 403 kts | 186° |
| 2026-05-08 15:14 | 44.26871 | 2.88705 | 32989 ft | 404 kts | 186° |
| 2026-05-08 15:15 | 44.21258 | 2.88299 | 32986 ft | 403 kts | 186° |
| 2026-05-08 15:15 | 44.15659 | 2.87899 | 32994 ft | 402 kts | 185° |
| 2026-05-08 15:16 | 44.10064 | 2.87498 | 33003 ft | 402 kts | 185° |
| 2026-05-08 15:16 | 44.04469 | 2.87094 | 32996 ft | 403 kts | 185° |
| 2026-05-08 15:17 | 43.98863 | 2.86693 | 32986 ft | 403 kts | 185° |
| 2026-05-08 15:17 | 43.93270 | 2.86296 | 32999 ft | 402 kts | 185° |
| 2026-05-08 15:18 | 43.87674 | 2.85899 | 33004 ft | 403 kts | 185° |
| 2026-05-08 15:18 | 43.82113 | 2.85503 | 32993 ft | 402 kts | 185° |
| 2026-05-08 15:19 | 43.76511 | 2.85230 | 32980 ft | 403 kts | 181° |
| 2026-05-08 15:19 | 43.70924 | 2.85313 | 32653 ft | 397 kts | 181° |
| 2026-05-08 15:20 | 43.68146 | 2.85357 | 31755 ft | 401 kts | 181° |
| 2026-05-08 15:20 | 43.65361 | 2.85400 | 31151 ft | 399 kts | 181° |
| 2026-05-08 15:20 | 43.62604 | 2.85443 | 30684 ft | 394 kts | 181° |
| 2026-05-08 15:20 | 43.59885 | 2.85483 | 30252 ft | 386 kts | 181° |
| 2026-05-08 15:21 | 43.57224 | 2.85522 | 29776 ft | 380 kts | 181° |
| 2026-05-08 15:21 | 43.54590 | 2.85560 | 29269 ft | 375 kts | 181° |
| 2026-05-08 15:21 | 43.52004 | 2.85599 | 28794 ft | 369 kts | 181° |
| 2026-05-08 15:21 | 43.49452 | 2.85638 | 28337 ft | 363 kts | 181° |
| 2026-05-08 15:22 | 43.46947 | 2.85674 | 27899 ft | 359 kts | 181° |
| 2026-05-08 15:22 | 43.44458 | 2.85708 | 27473 ft | 356 kts | 181° |
| 2026-05-08 15:22 | 43.41990 | 2.85744 | 27040 ft | 353 kts | 181° |
| 2026-05-08 15:22 | 43.39562 | 2.85784 | 26605 ft | 352 kts | 181° |
| 2026-05-08 15:23 | 43.37128 | 2.85818 | 26158 ft | 349 kts | 182° |
| 2026-05-08 15:23 | 43.34702 | 2.85852 | 25728 ft | 347 kts | 182° |
| 2026-05-08 15:23 | 43.32296 | 2.85887 | 25320 ft | 346 kts | 182° |
| 2026-05-08 15:23 | 43.29889 | 2.85922 | 24892 ft | 344 kts | 182° |
| 2026-05-08 15:24 | 43.27492 | 2.85957 | 24442 ft | 344 kts | 182° |
| 2026-05-08 15:24 | 43.25100 | 2.85993 | 24002 ft | 344 kts | 182° |
| 2026-05-08 15:24 | 43.22710 | 2.86029 | 23564 ft | 343 kts | 182° |
| 2026-05-08 15:24 | 43.20327 | 2.86059 | 23068 ft | 339 kts | 182° |
| 2026-05-08 15:25 | 43.17977 | 2.86094 | 22595 ft | 338 kts | 183° |
| 2026-05-08 15:25 | 43.15638 | 2.86127 | 22143 ft | 334 kts | 183° |
| 2026-05-08 15:25 | 43.13330 | 2.86162 | 21696 ft | 330 kts | 182° |
| 2026-05-08 15:25 | 43.11045 | 2.86194 | 21264 ft | 327 kts | 182° |
| 2026-05-08 15:26 | 43.08783 | 2.86227 | 20847 ft | 322 kts | 182° |
| 2026-05-08 15:26 | 43.06553 | 2.86260 | 20448 ft | 319 kts | 182° |
| 2026-05-08 15:26 | 43.04347 | 2.86292 | 20051 ft | 316 kts | 182° |
| 2026-05-08 15:26 | 43.02153 | 2.86322 | 19655 ft | 314 kts | 181° |
| 2026-05-08 15:27 | 42.99978 | 2.86354 | 19264 ft | 312 kts | 181° |
| 2026-05-08 15:27 | 42.97818 | 2.86384 | 18872 ft | 310 kts | 181° |
| 2026-05-08 15:27 | 42.95660 | 2.86415 | 18510 ft | 310 kts | 181° |
| 2026-05-08 15:27 | 42.93516 | 2.86445 | 18139 ft | 307 kts | 180° |
| 2026-05-08 15:28 | 42.91385 | 2.86475 | 17741 ft | 305 kts | 180° |
| 2026-05-08 15:28 | 42.89266 | 2.86507 | 17364 ft | 303 kts | 181° |
| 2026-05-08 15:28 | 42.87167 | 2.86536 | 16985 ft | 301 kts | 180° |
| 2026-05-08 15:28 | 42.85081 | 2.86566 | 16636 ft | 299 kts | 180° |
| 2026-05-08 15:29 | 42.83009 | 2.86597 | 16303 ft | 296 kts | 181° |
| 2026-05-08 15:29 | 42.80960 | 2.86626 | 15980 ft | 293 kts | 180° |
| 2026-05-08 15:29 | 42.78958 | 2.86656 | 15676 ft | 290 kts | 180° |
| 2026-05-08 15:29 | 42.76944 | 2.86685 | 15369 ft | 288 kts | 180° |
| 2026-05-08 15:30 | 42.74954 | 2.86822 | 15063 ft | 286 kts | 172° |
| 2026-05-08 15:30 | 42.73034 | 2.87493 | 14753 ft | 285 kts | 164° |
| 2026-05-08 15:30 | 42.71157 | 2.88319 | 14442 ft | 283 kts | 165° |
| 2026-05-08 15:30 | 42.69294 | 2.89145 | 14128 ft | 280 kts | 164° |
| 2026-05-08 15:31 | 42.67445 | 2.89958 | 13832 ft | 278 kts | 165° |
| 2026-05-08 15:31 | 42.65608 | 2.90760 | 13499 ft | 276 kts | 165° |
| 2026-05-08 15:31 | 42.63795 | 2.91551 | 13176 ft | 272 kts | 166° |
| 2026-05-08 15:31 | 42.61996 | 2.92329 | 12870 ft | 270 kts | 166° |
| 2026-05-08 15:32 | 42.60215 | 2.93094 | 12562 ft | 267 kts | 166° |
| 2026-05-08 15:32 | 42.58450 | 2.93851 | 12261 ft | 264 kts | 166° |
| 2026-05-08 15:32 | 42.56705 | 2.94600 | 11952 ft | 264 kts | 165° |
| 2026-05-08 15:32 | 42.54958 | 2.95349 | 11662 ft | 262 kts | 166° |
| 2026-05-08 15:33 | 42.53228 | 2.96089 | 11370 ft | 259 kts | 165° |
| 2026-05-08 15:33 | 42.51495 | 2.96829 | 11074 ft | 262 kts | 165° |
| 2026-05-08 15:33 | 42.49768 | 2.97567 | 10782 ft | 259 kts | 166° |
| 2026-05-08 15:33 | 42.48014 | 2.98065 | 10478 ft | 255 kts | 181° |
| 2026-05-08 15:34 | 42.46288 | 2.97746 | 10207 ft | 249 kts | 196° |
| 2026-05-08 15:34 | 42.44656 | 2.97099 | 9943 ft | 249 kts | 197° |
| 2026-05-08 15:34 | 42.42956 | 2.96407 | 9619 ft | 248 kts | 197° |
| 2026-05-08 15:34 | 42.41303 | 2.95745 | 9307 ft | 247 kts | 197° |
| 2026-05-08 15:35 | 42.39681 | 2.95103 | 9010 ft | 245 kts | 197° |
| 2026-05-08 15:35 | 42.38050 | 2.94464 | 8712 ft | 243 kts | 197° |
| 2026-05-08 15:35 | 42.36431 | 2.93832 | 8410 ft | 241 kts | 196° |
| 2026-05-08 15:35 | 42.34809 | 2.93200 | 8121 ft | 244 kts | 196° |
| 2026-05-08 15:36 | 42.33087 | 2.92531 | 7978 ft | 263 kts | 196° |
| 2026-05-08 15:36 | 42.31888 | 2.92066 | 7965 ft | 266 kts | 196° |
| 2026-05-08 15:36 | 42.29533 | 2.91154 | 7969 ft | 265 kts | 196° |
| 2026-05-08 15:36 | 42.27765 | 2.90472 | 7984 ft | 265 kts | 196° |
| 2026-05-08 15:37 | 42.26001 | 2.89793 | 7978 ft | 263 kts | 196° |
| 2026-05-08 15:37 | 42.24249 | 2.89120 | 7895 ft | 258 kts | 196° |
| 2026-05-08 15:37 | 42.22548 | 2.88467 | 7577 ft | 252 kts | 196° |
| 2026-05-08 15:37 | 42.20893 | 2.87833 | 7376 ft | 242 kts | 196° |
| 2026-05-08 15:38 | 42.19309 | 2.87227 | 7238 ft | 231 kts | 195° |
| 2026-05-08 15:38 | 42.17799 | 2.86649 | 7073 ft | 221 kts | 195° |
| 2026-05-08 15:38 | 42.16340 | 2.86089 | 6817 ft | 215 kts | 196° |
| 2026-05-08 15:38 | 42.14908 | 2.85539 | 6480 ft | 214 kts | 196° |
| 2026-05-08 15:39 | 42.13479 | 2.84981 | 6076 ft | 212 kts | 197° |
| 2026-05-08 15:39 | 42.12121 | 2.84435 | 5830 ft | 196 kts | 197° |
| 2026-05-08 15:39 | 42.10828 | 2.83936 | 5449 ft | 192 kts | 196° |
| 2026-05-08 15:39 | 42.09542 | 2.83445 | 4980 ft | 193 kts | 196° |
| 2026-05-08 15:40 | 42.08244 | 2.82950 | 4511 ft | 195 kts | 196° |
| 2026-05-08 15:40 | 42.06951 | 2.82458 | 4180 ft | 189 kts | 197° |
| 2026-05-08 15:40 | 42.05742 | 2.81997 | 3930 ft | 177 kts | 196° |
| 2026-05-08 15:40 | 42.04552 | 2.81545 | 3553 ft | 178 kts | 196° |
| 2026-05-08 15:41 | 42.03362 | 2.81092 | 3222 ft | 176 kts | 197° |
| 2026-05-08 15:41 | 42.02195 | 2.80648 | 2881 ft | 173 kts | 196° |
| 2026-05-08 15:41 | 42.01033 | 2.80206 | 2486 ft | 174 kts | 196° |
| 2026-05-08 15:41 | 41.99896 | 2.79774 | 2208 ft | 165 kts | 195° |
| 2026-05-08 15:42 | 41.98828 | 2.79368 | 2002 ft | 153 kts | 195° |
| 2026-05-08 15:42 | 41.97818 | 2.78985 | 1798 ft | 150 kts | 195° |
| 2026-05-08 15:42 | 41.96819 | 2.78606 | 1626 ft | 141 kts | 195° |
| 2026-05-08 15:42 | 41.95964 | 2.78281 | 1426 ft | 121 kts | 195° |
| 2026-05-08 15:43 | 41.95170 | 2.77981 | 1258 ft | 120 kts | 193° |
| 2026-05-08 15:43 | 41.94354 | 2.77671 | 1096 ft | 122 kts | 192° |
| 2026-05-08 15:43 | 41.93547 | 2.77378 | 978 ft | 118 kts | 194° |
| 2026-05-08 15:43 | 41.92754 | 2.77066 | 781 ft | 119 kts | 195° |
| 2026-05-08 15:44 | 41.91946 | 2.76752 | 635 ft | 121 kts | 194° |
| 2026-05-08 15:44 | 41.91144 | 2.76447 | 487 ft | 118 kts | 194° |
| 2026-05-08 15:44 | 41.90460 | 2.76192 | 460 ft | 78 kts | 194° |
| 2026-05-08 15:44 | 41.90166 | 2.76086 | 450 ft | 15 kts | 193° |
| 2026-05-08 15:45 | 41.90082 | 2.76145 | 435 ft | 15 kts | 111° |
| 2026-05-08 15:45 | 41.90062 | 2.76232 | 427 ft | 3 kts | 104° |
| 2026-05-08 15:45 | 41.90057 | 2.76263 | 431 ft | 4 kts | 104° |
| 2026-05-08 15:45 | 41.90048 | 2.76309 | 420 ft | 6 kts | 104° |
| 2026-05-08 15:46 | 41.90041 | 2.76341 | 434 ft | 0 kts | 110° |
| 2026-05-08 15:46 | 41.90038 | 2.76350 | 433 ft | 2 kts | 111° |
| 2026-05-08 15:46 | 41.90025 | 2.76366 | 426 ft | 3 kts | 159° |
| 2026-05-08 15:46 | 41.89996 | 2.76366 | 432 ft | 5 kts | 189° |
| 2026-05-08 15:47 | 41.89956 | 2.76350 | 424 ft | 7 kts | 201° |
| 2026-05-08 15:47 | 41.89917 | 2.76335 | 430 ft | 1 kts | 195° |
| 2026-05-08 15:47 | 41.89916 | 2.76335 | 430 ft | 0 kts | 195° |
| 2026-05-08 15:47 | 41.89915 | 2.76334 | 430 ft | 1 kts | 195° |
| 2026-05-08 15:48 | 41.89892 | 2.76351 | 429 ft | 0 kts | 116° |
| 2026-05-08 15:48 | 41.89889 | 2.76359 | 422 ft | 2 kts | 116° |
| 2026-05-08 15:48 | 41.89878 | 2.76378 | 422 ft | 3 kts | 141° |
| 2026-05-08 15:49 | 41.89864 | 2.76389 | 427 ft | 1 kts | 156° |
| 2026-05-08 15:49 | 41.89855 | 2.76392 | 427 ft | 2 kts | 169° |
| 2026-05-08 15:49 | 41.89842 | 2.76395 | 427 ft | 0 kts | 169° |
| 2026-05-08 15:50 | 41.89835 | 2.76398 | 426 ft | 2 kts | 159° |
| 2026-05-08 15:50 | 41.89823 | 2.76418 | 426 ft | 3 kts | 116° |
| 2026-05-08 15:50 | 41.89816 | 2.76445 | 422 ft | 0 kts | 107° |
| 2026-05-08 15:51 | 41.89813 | 2.76458 | 425 ft | 1 kts | 105° |
| 2026-05-08 15:51 | 41.89813 | 2.76459 | 425 ft | 0 kts | 105° |